sensor_id;sensor_type;location;lat;lon;timestamp;pressure;altitude;pressure_sealevel;temperature;humidity
64876;BME280;51369;49.862;9.908;2023-05-08T00:00:32;98657.31;;;16.16;60.90
64876;BME280;51369;49.862;9.908;2023-05-08T00:02:58;98663.81;;;16.14;61.41
64876;BME280;51369;49.862;9.908;2023-05-08T00:05:23;98655.84;;;16.11;61.37
64876;BME280;51369;49.862;9.908;2023-05-08T00:07:48;98661.38;;;16.09;61.45
64876;BME280;51369;49.862;9.908;2023-05-08T00:10:16;98664.28;;;16.06;61.78
64876;BME280;51369;49.862;9.908;2023-05-08T00:12:41;98663.59;;;16.03;61.63
64876;BME280;51369;49.862;9.908;2023-05-08T00:15:07;98662.00;;;15.99;62.10
64876;BME280;51369;49.862;9.908;2023-05-08T00:17:33;98658.59;;;15.95;61.49
64876;BME280;51369;49.862;9.908;2023-05-08T00:19:59;98657.03;;;15.91;61.64
64876;BME280;51369;49.862;9.908;2023-05-08T00:22:24;98661.78;;;15.87;62.11
64876;BME280;51369;49.862;9.908;2023-05-08T00:24:50;98662.94;;;15.83;62.33
64876;BME280;51369;49.862;9.908;2023-05-08T00:27:15;98659.50;;;15.80;62.53
64876;BME280;51369;49.862;9.908;2023-05-08T00:29:41;98660.66;;;15.76;62.59
64876;BME280;51369;49.862;9.908;2023-05-08T00:32:07;98661.72;;;15.73;62.83
64876;BME280;51369;49.862;9.908;2023-05-08T00:34:33;98661.91;;;15.70;62.51
64876;BME280;51369;49.862;9.908;2023-05-08T00:36:59;98665.69;;;15.68;62.26
64876;BME280;51369;49.862;9.908;2023-05-08T00:39:24;98666.72;;;15.65;62.65
64876;BME280;51369;49.862;9.908;2023-05-08T00:41:51;98657.00;;;15.61;62.65
64876;BME280;51369;49.862;9.908;2023-05-08T00:44:16;98660.81;;;15.58;63.13
64876;BME280;51369;49.862;9.908;2023-05-08T00:46:43;98662.78;;;15.55;63.26
64876;BME280;51369;49.862;9.908;2023-05-08T00:49:09;98662.88;;;15.53;62.88
64876;BME280;51369;49.862;9.908;2023-05-08T00:51:38;98671.13;;;15.52;63.31
64876;BME280;51369;49.862;9.908;2023-05-08T00:54:04;98663.06;;;15.50;63.29
64876;BME280;51369;49.862;9.908;2023-05-08T00:56:30;98674.91;;;15.49;63.15
64876;BME280;51369;49.862;9.908;2023-05-08T00:58:57;98673.25;;;15.47;62.90
64876;BME280;51369;49.862;9.908;2023-05-08T01:01:23;98677.91;;;15.45;63.32
64876;BME280;51369;49.862;9.908;2023-05-08T01:03:49;98681.69;;;15.42;63.37
64876;BME280;51369;49.862;9.908;2023-05-08T01:06:14;98674.47;;;15.41;63.02
64876;BME280;51369;49.862;9.908;2023-05-08T01:08:43;98678.25;;;15.39;63.42
64876;BME280;51369;49.862;9.908;2023-05-08T01:11:40;98679.41;;;15.35;62.86
64876;BME280;51369;49.862;9.908;2023-05-08T01:17:28;98681.41;;;15.31;63.70
64876;BME280;51369;49.862;9.908;2023-05-08T01:20:13;98678.78;;;15.29;63.46
64876;BME280;51369;49.862;9.908;2023-05-08T01:28:44;98701.69;;;15.25;63.52
64876;BME280;51369;49.862;9.908;2023-05-08T01:31:23;98688.16;;;15.24;63.75
64876;BME280;51369;49.862;9.908;2023-05-08T01:34:09;98686.50;;;15.21;63.36
64876;BME280;51369;49.862;9.908;2023-05-08T01:36:43;98684.66;;;15.22;63.15
64876;BME280;51369;49.862;9.908;2023-05-08T01:39:16;98701.84;;;15.22;63.73
64876;BME280;51369;49.862;9.908;2023-05-08T01:41:57;98694.75;;;15.20;63.88
64876;BME280;51369;49.862;9.908;2023-05-08T01:44:34;98692.03;;;15.20;63.41
64876;BME280;51369;49.862;9.908;2023-05-08T01:47:04;98693.88;;;15.19;63.23
64876;BME280;51369;49.862;9.908;2023-05-08T01:49:39;98696.66;;;15.18;63.89
64876;BME280;51369;49.862;9.908;2023-05-08T01:52:10;98696.59;;;15.19;63.76
64876;BME280;51369;49.862;9.908;2023-05-08T01:54:49;98695.09;;;15.14;63.66
64876;BME280;51369;49.862;9.908;2023-05-08T01:57:18;98701.31;;;15.16;64.25
64876;BME280;51369;49.862;9.908;2023-05-08T01:59:46;98705.09;;;15.13;64.02
64876;BME280;51369;49.862;9.908;2023-05-08T02:02:13;98701.50;;;15.13;64.15
64876;BME280;51369;49.862;9.908;2023-05-08T02:04:39;98703.41;;;15.11;64.07
64876;BME280;51369;49.862;9.908;2023-05-08T02:07:07;98707.97;;;15.10;64.12
64876;BME280;51369;49.862;9.908;2023-05-08T02:09:33;98716.22;;;15.09;64.03
64876;BME280;51369;49.862;9.908;2023-05-08T02:11:59;98714.47;;;15.08;63.76
64876;BME280;51369;49.862;9.908;2023-05-08T02:14:27;98710.88;;;15.07;63.30
64876;BME280;51369;49.862;9.908;2023-05-08T02:16:54;98717.28;;;15.06;64.02
64876;BME280;51369;49.862;9.908;2023-05-08T02:19:23;98724.63;;;15.04;64.16
64876;BME280;51369;49.862;9.908;2023-05-08T02:21:50;98713.06;;;15.01;63.83
64876;BME280;51369;49.862;9.908;2023-05-08T02:24:17;98724.88;;;15.00;64.16
64876;BME280;51369;49.862;9.908;2023-05-08T02:26:45;98725.06;;;14.96;64.08
64876;BME280;51369;49.862;9.908;2023-05-08T02:29:12;98717.94;;;14.94;64.00
64876;BME280;51369;49.862;9.908;2023-05-08T02:31:40;98730.66;;;14.93;64.12
64876;BME280;51369;49.862;9.908;2023-05-08T02:34:07;98718.03;;;14.92;63.92
64876;BME280;51369;49.862;9.908;2023-05-08T02:36:36;98726.19;;;14.92;64.50
64876;BME280;51369;49.862;9.908;2023-05-08T02:39:02;98729.94;;;14.90;64.33
64876;BME280;51369;49.862;9.908;2023-05-08T02:41:31;98730.91;;;14.89;64.61
64876;BME280;51369;49.862;9.908;2023-05-08T02:43:58;98729.16;;;14.88;64.44
64876;BME280;51369;49.862;9.908;2023-05-08T02:46:35;98725.66;;;14.86;64.72
64876;BME280;51369;49.862;9.908;2023-05-08T02:49:07;98732.84;;;14.87;64.43
64876;BME280;51369;49.862;9.908;2023-05-08T02:51:42;98731.97;;;14.86;64.84
64876;BME280;51369;49.862;9.908;2023-05-08T02:54:18;98737.56;;;14.83;64.97
64876;BME280;51369;49.862;9.908;2023-05-08T02:57:04;98740.38;;;14.82;64.84
64876;BME280;51369;49.862;9.908;2023-05-08T02:59:39;98742.91;;;14.85;64.73
64876;BME280;51369;49.862;9.908;2023-05-08T03:02:14;98747.47;;;14.84;64.90
64876;BME280;51369;49.862;9.908;2023-05-08T03:04:48;98744.84;;;14.83;65.18
64876;BME280;51369;49.862;9.908;2023-05-08T03:07:15;98737.56;;;14.83;64.61
64876;BME280;51369;49.862;9.908;2023-05-08T03:09:47;98730.38;;;14.82;64.55
64876;BME280;51369;49.862;9.908;2023-05-08T03:12:18;98728.59;;;14.81;64.94
64876;BME280;51369;49.862;9.908;2023-05-08T03:15:14;98734.22;;;14.78;65.03
64876;BME280;51369;49.862;9.908;2023-05-08T03:17:45;98734.13;;;14.80;64.84
64876;BME280;51369;49.862;9.908;2023-05-08T03:20:15;98733.25;;;14.79;64.63
64876;BME280;51369;49.862;9.908;2023-05-08T03:22:42;98732.47;;;14.77;64.69
64876;BME280;51369;49.862;9.908;2023-05-08T03:25:10;98732.53;;;14.76;64.88
64876;BME280;51369;49.862;9.908;2023-05-08T03:27:39;98738.06;;;14.74;64.86
64876;BME280;51369;49.862;9.908;2023-05-08T03:30:06;98734.47;;;14.74;64.61
64876;BME280;51369;49.862;9.908;2023-05-08T03:32:36;98737.34;;;14.71;64.64
64876;BME280;51369;49.862;9.908;2023-05-08T03:35:04;98740.06;;;14.71;64.54
64876;BME280;51369;49.862;9.908;2023-05-08T03:37:30;98735.59;;;14.70;64.54
64876;BME280;51369;49.862;9.908;2023-05-08T03:39:56;98733.91;;;14.67;65.05
64876;BME280;51369;49.862;9.908;2023-05-08T03:42:22;98735.75;;;14.67;65.18
64876;BME280;51369;49.862;9.908;2023-05-08T03:44:52;98736.63;;;14.67;64.82
64876;BME280;51369;49.862;9.908;2023-05-08T03:47:19;98731.34;;;14.64;64.41
64876;BME280;51369;49.862;9.908;2023-05-08T03:49:46;98728.63;;;14.64;65.03
64876;BME280;51369;49.862;9.908;2023-05-08T03:52:13;98732.22;;;14.64;65.22
64876;BME280;51369;49.862;9.908;2023-05-08T03:54:40;98730.47;;;14.63;64.87
64876;BME280;51369;49.862;9.908;2023-05-08T03:57:05;98731.53;;;14.61;64.48
64876;BME280;51369;49.862;9.908;2023-05-08T03:59:58;98729.03;;;14.56;64.45
64876;BME280;51369;49.862;9.908;2023-05-08T04:07:42;98740.63;;;14.60;64.26
64876;BME280;51369;49.862;9.908;2023-05-08T04:10:23;98737.84;;;14.61;65.02
64876;BME280;51369;49.862;9.908;2023-05-08T04:15:28;98734.06;;;14.64;64.89
64876;BME280;51369;49.862;9.908;2023-05-08T04:18:06;98744.94;;;14.64;65.39
64876;BME280;51369;49.862;9.908;2023-05-08T04:20:33;98743.91;;;14.67;65.05
64876;BME280;51369;49.862;9.908;2023-05-08T04:22:59;98746.63;;;14.67;65.14
64876;BME280;51369;49.862;9.908;2023-05-08T04:25:27;98753.81;;;14.68;64.89
64876;BME280;51369;49.862;9.908;2023-05-08T04:27:54;98756.53;;;14.68;64.09
64876;BME280;51369;49.862;9.908;2023-05-08T04:30:22;98747.41;;;14.69;64.41
64876;BME280;51369;49.862;9.908;2023-05-08T04:32:49;98756.44;;;14.69;64.53
64876;BME280;51369;49.862;9.908;2023-05-08T04:35:15;98761.97;;;14.68;64.86
64876;BME280;51369;49.862;9.908;2023-05-08T04:37:42;98762.94;;;14.67;65.40
64876;BME280;51369;49.862;9.908;2023-05-08T04:40:08;98765.66;;;14.67;65.50
64876;BME280;51369;49.862;9.908;2023-05-08T04:42:35;98761.09;;;14.67;65.21
64876;BME280;51369;49.862;9.908;2023-05-08T04:45:02;98770.19;;;14.66;65.45
64876;BME280;51369;49.862;9.908;2023-05-08T04:47:27;98760.28;;;14.65;64.88
64876;BME280;51369;49.862;9.908;2023-05-08T04:49:53;98765.72;;;14.65;64.36
64876;BME280;51369;49.862;9.908;2023-05-08T04:52:19;98772.91;;;14.66;64.41
64876;BME280;51369;49.862;9.908;2023-05-08T04:54:45;98774.75;;;14.65;64.49
64876;BME280;51369;49.862;9.908;2023-05-08T04:57:10;98780.13;;;14.67;65.19
64876;BME280;51369;49.862;9.908;2023-05-08T04:59:36;98782.84;;;14.67;64.72
64876;BME280;51369;49.862;9.908;2023-05-08T05:02:01;98781.88;;;14.68;64.86
64876;BME280;51369;49.862;9.908;2023-05-08T05:04:28;98779.94;;;14.70;65.35
64876;BME280;51369;49.862;9.908;2023-05-08T05:06:54;98782.59;;;14.72;64.48
64876;BME280;51369;49.862;9.908;2023-05-08T05:09:20;98784.34;;;14.73;64.94
64876;BME280;51369;49.862;9.908;2023-05-08T05:11:45;98789.69;;;14.74;64.36
64876;BME280;51369;49.862;9.908;2023-05-08T05:14:11;98786.03;;;14.75;63.88
64876;BME280;51369;49.862;9.908;2023-05-08T05:16:36;98789.53;;;14.77;63.82
64876;BME280;51369;49.862;9.908;2023-05-08T05:19:02;98787.63;;;14.79;64.25
64876;BME280;51369;49.862;9.908;2023-05-08T05:21:27;98792.97;;;14.81;63.84
64876;BME280;51369;49.862;9.908;2023-05-08T05:23:53;98794.66;;;14.83;63.64
64876;BME280;51369;49.862;9.908;2023-05-08T05:26:19;98794.47;;;14.86;64.05
64876;BME280;51369;49.862;9.908;2023-05-08T05:28:46;98790.81;;;14.87;63.64
64876;BME280;51369;49.862;9.908;2023-05-08T05:31:11;98795.19;;;14.90;64.02
64876;BME280;51369;49.862;9.908;2023-05-08T05:33:37;98797.75;;;14.93;64.20
64876;BME280;51369;49.862;9.908;2023-05-08T05:36:03;98804.00;;;14.95;64.08
64876;BME280;51369;49.862;9.908;2023-05-08T05:38:29;98802.16;;;14.95;64.35
64876;BME280;51369;49.862;9.908;2023-05-08T05:40:54;98806.63;;;14.96;63.77
64876;BME280;51369;49.862;9.908;2023-05-08T05:43:20;98804.72;;;14.98;63.73
64876;BME280;51369;49.862;9.908;2023-05-08T05:45:45;98809.09;;;15.01;63.41
64876;BME280;51369;49.862;9.908;2023-05-08T05:48:11;98808.22;;;15.01;63.76
64876;BME280;51369;49.862;9.908;2023-05-08T05:50:38;98807.19;;;15.03;64.42
64876;BME280;51369;49.862;9.908;2023-05-08T05:53:04;98810.63;;;15.07;63.88
64876;BME280;51369;49.862;9.908;2023-05-08T05:55:29;98815.97;;;15.08;63.34
64876;BME280;51369;49.862;9.908;2023-05-08T05:57:55;98812.19;;;15.11;63.71
64876;BME280;51369;49.862;9.908;2023-05-08T06:00:21;98819.41;;;15.12;63.62
64876;BME280;51369;49.862;9.908;2023-05-08T06:02:50;98816.59;;;15.13;63.52
64876;BME280;51369;49.862;9.908;2023-05-08T06:05:16;98815.47;;;15.17;63.89
64876;BME280;51369;49.862;9.908;2023-05-08T06:07:43;98825.31;;;15.20;63.69
64876;BME280;51369;49.862;9.908;2023-05-08T06:10:09;98817.94;;;15.22;63.47
64876;BME280;51369;49.862;9.908;2023-05-08T06:12:35;98828.75;;;15.23;63.45
64876;BME280;51369;49.862;9.908;2023-05-08T06:15:01;98828.56;;;15.26;63.75
64876;BME280;51369;49.862;9.908;2023-05-08T06:17:26;98829.28;;;15.30;63.38
64876;BME280;51369;49.862;9.908;2023-05-08T06:19:52;98837.28;;;15.33;62.99
64876;BME280;51369;49.862;9.908;2023-05-08T06:22:20;98831.75;;;15.35;63.15
64876;BME280;51369;49.862;9.908;2023-05-08T06:24:50;98833.50;;;15.36;62.93
64876;BME280;51369;49.862;9.908;2023-05-08T06:27:19;98828.88;;;15.38;63.07
64876;BME280;51369;49.862;9.908;2023-05-08T06:29:46;98828.69;;;15.41;63.16
64876;BME280;51369;49.862;9.908;2023-05-08T06:32:12;98835.81;;;15.43;62.91
64876;BME280;51369;49.862;9.908;2023-05-08T06:34:38;98828.28;;;15.48;63.14
64876;BME280;51369;49.862;9.908;2023-05-08T06:37:03;98825.28;;;15.53;62.73
64876;BME280;51369;49.862;9.908;2023-05-08T06:39:29;98835.97;;;15.57;62.15
64876;BME280;51369;49.862;9.908;2023-05-08T06:41:54;98830.22;;;15.62;62.73
64876;BME280;51369;49.862;9.908;2023-05-08T06:44:28;98835.41;;;15.67;62.61
64876;BME280;51369;49.862;9.908;2023-05-08T06:46:54;98829.78;;;15.70;61.30
64876;BME280;51369;49.862;9.908;2023-05-08T06:49:19;98832.34;;;15.73;61.15
64876;BME280;51369;49.862;9.908;2023-05-08T06:51:45;98834.03;;;15.75;61.71
64876;BME280;51369;49.862;9.908;2023-05-08T06:54:10;98834.81;;;15.77;60.56
64876;BME280;51369;49.862;9.908;2023-05-08T06:56:35;98838.31;;;15.79;60.66
64876;BME280;51369;49.862;9.908;2023-05-08T06:59:01;98839.03;;;15.83;60.82
64876;BME280;51369;49.862;9.908;2023-05-08T07:01:26;98841.59;;;15.86;60.86
64876;BME280;51369;49.862;9.908;2023-05-08T07:03:51;98834.13;;;15.89;60.77
64876;BME280;51369;49.862;9.908;2023-05-08T07:06:17;98835.78;;;15.92;60.62
64876;BME280;51369;49.862;9.908;2023-05-08T07:08:42;98836.56;;;15.94;60.77
64876;BME280;51369;49.862;9.908;2023-05-08T07:11:07;98836.50;;;15.95;60.29
64876;BME280;51369;49.862;9.908;2023-05-08T07:13:37;98837.38;;;15.96;60.58
64876;BME280;51369;49.862;9.908;2023-05-08T07:16:08;98840.88;;;15.98;60.27
64876;BME280;51369;49.862;9.908;2023-05-08T07:18:34;98840.72;;;16.01;60.73
64876;BME280;51369;49.862;9.908;2023-05-08T07:20:59;98843.25;;;16.04;61.22
64876;BME280;51369;49.862;9.908;2023-05-08T07:23:24;98840.28;;;16.09;60.98
64876;BME280;51369;49.862;9.908;2023-05-08T07:25:51;98843.69;;;16.12;60.76
64876;BME280;51369;49.862;9.908;2023-05-08T07:28:17;98840.97;;;16.12;60.44
64876;BME280;51369;49.862;9.908;2023-05-08T07:30:42;98840.88;;;16.14;60.57
64876;BME280;51369;49.862;9.908;2023-05-08T07:33:08;98840.78;;;16.15;60.98
64876;BME280;51369;49.862;9.908;2023-05-08T07:35:33;98845.19;;;16.18;60.42
64876;BME280;51369;49.862;9.908;2023-05-08T07:37:58;98840.44;;;16.21;61.10
64876;BME280;51369;49.862;9.908;2023-05-08T07:40:24;98846.50;;;16.26;60.85
64876;BME280;51369;49.862;9.908;2023-05-08T07:42:49;98847.09;;;16.32;60.39
64876;BME280;51369;49.862;9.908;2023-05-08T07:45:15;98848.59;;;16.37;60.77
64876;BME280;51369;49.862;9.908;2023-05-08T07:47:55;98847.44;;;16.41;60.40
64876;BME280;51369;49.862;9.908;2023-05-08T07:50:22;98855.16;;;16.49;60.50
64876;BME280;51369;49.862;9.908;2023-05-08T07:52:47;98842.25;;;16.52;60.29
64876;BME280;51369;49.862;9.908;2023-05-08T07:55:13;98852.00;;;16.56;60.14
64876;BME280;51369;49.862;9.908;2023-05-08T07:57:39;98849.97;;;16.60;59.93
64876;BME280;51369;49.862;9.908;2023-05-08T08:00:09;98843.44;;;16.63;59.69
64876;BME280;51369;49.862;9.908;2023-05-08T08:02:39;98846.91;;;16.66;59.84
64876;BME280;51369;49.862;9.908;2023-05-08T08:05:05;98847.59;;;16.70;60.18
64876;BME280;51369;49.862;9.908;2023-05-08T08:07:31;98844.69;;;16.73;59.48
64876;BME280;51369;49.862;9.908;2023-05-08T08:10:00;98845.38;;;16.76;59.61
64876;BME280;51369;49.862;9.908;2023-05-08T08:12:26;98847.84;;;16.81;59.20
64876;BME280;51369;49.862;9.908;2023-05-08T08:14:53;98848.53;;;16.84;59.29
64876;BME280;51369;49.862;9.908;2023-05-08T08:17:18;98847.28;;;16.90;59.36
64876;BME280;51369;49.862;9.908;2023-05-08T08:19:44;98845.25;;;16.94;59.18
64876;BME280;51369;49.862;9.908;2023-05-08T08:22:09;98848.47;;;17.00;59.68
64876;BME280;51369;49.862;9.908;2023-05-08T08:24:35;98847.13;;;17.07;60.17
64876;BME280;51369;49.862;9.908;2023-05-08T08:27:00;98855.72;;;17.15;59.44
64876;BME280;51369;49.862;9.908;2023-05-08T08:29:25;98850.84;;;17.20;59.46
64876;BME280;51369;49.862;9.908;2023-05-08T08:31:51;98848.63;;;17.27;58.52
64876;BME280;51369;49.862;9.908;2023-05-08T08:34:16;98853.88;;;17.30;59.41
64876;BME280;51369;49.862;9.908;2023-05-08T08:36:42;98855.22;;;17.37;59.64
64876;BME280;51369;49.862;9.908;2023-05-08T08:39:08;98855.72;;;17.44;59.30
64876;BME280;51369;49.862;9.908;2023-05-08T08:41:33;98854.44;;;17.49;59.75
64876;BME280;51369;49.862;9.908;2023-05-08T08:43:59;98845.09;;;17.53;59.31
64876;BME280;51369;49.862;9.908;2023-05-08T08:46:26;98854.06;;;17.55;58.19
64876;BME280;51369;49.862;9.908;2023-05-08T08:48:53;98849.28;;;17.59;58.72
64876;BME280;51369;49.862;9.908;2023-05-08T08:51:25;98847.22;;;17.63;59.51
64876;BME280;51369;49.862;9.908;2023-05-08T08:54:09;98852.34;;;17.69;59.22
64876;BME280;51369;49.862;9.908;2023-05-08T08:56:37;98849.22;;;17.75;59.14
64876;BME280;51369;49.862;9.908;2023-05-08T08:59:04;98856.91;;;17.82;59.33
64876;BME280;51369;49.862;9.908;2023-05-08T09:01:33;98852.91;;;17.88;59.29
64876;BME280;51369;49.862;9.908;2023-05-08T09:04:03;98853.38;;;17.95;58.05
64876;BME280;51369;49.862;9.908;2023-05-08T09:06:29;98854.06;;;17.98;58.25
64876;BME280;51369;49.862;9.908;2023-05-08T09:08:55;98857.38;;;18.03;58.59
64876;BME280;51369;49.862;9.908;2023-05-08T09:11:22;98854.25;;;18.09;58.13
64876;BME280;51369;49.862;9.908;2023-05-08T09:13:48;98851.09;;;18.15;58.10
64876;BME280;51369;49.862;9.908;2023-05-08T09:16:13;98857.94;;;18.23;57.56
64876;BME280;51369;49.862;9.908;2023-05-08T09:18:39;98852.25;;;18.26;57.26
64876;BME280;51369;49.862;9.908;2023-05-08T09:21:05;98855.66;;;18.29;57.07
64876;BME280;51369;49.862;9.908;2023-05-08T09:23:31;98854.56;;;18.32;57.44
64876;BME280;51369;49.862;9.908;2023-05-08T09:25:56;98856.91;;;18.38;57.10
64876;BME280;51369;49.862;9.908;2023-05-08T09:28:24;98852.13;;;18.41;57.28
64876;BME280;51369;49.862;9.908;2023-05-08T09:30:53;98858.25;;;18.45;56.56
64876;BME280;51369;49.862;9.908;2023-05-08T09:33:20;98848.97;;;18.47;57.17
64876;BME280;51369;49.862;9.908;2023-05-08T09:35:46;98858.59;;;18.53;56.54
64876;BME280;51369;49.862;9.908;2023-05-08T09:38:33;98853.72;;;18.58;57.08
64876;BME280;51369;49.862;9.908;2023-05-08T09:41:15;98854.97;;;18.67;56.49
64876;BME280;51369;49.862;9.908;2023-05-08T09:43:44;98851.63;;;18.76;56.50
64876;BME280;51369;49.862;9.908;2023-05-08T09:46:25;98852.84;;;18.84;57.24
64876;BME280;51369;49.862;9.908;2023-05-08T09:48:53;98854.19;;;18.92;56.83
64876;BME280;51369;49.862;9.908;2023-05-08T09:51:19;98852.66;;;19.00;56.70
64876;BME280;51369;49.862;9.908;2023-05-08T09:53:45;98851.78;;;19.12;57.14
64876;BME280;51369;49.862;9.908;2023-05-08T09:56:11;98852.13;;;19.21;55.71
64876;BME280;51369;49.862;9.908;2023-05-08T09:58:40;98846.88;;;19.30;55.79
64876;BME280;51369;49.862;9.908;2023-05-08T10:01:07;98846.97;;;19.41;55.65
64876;BME280;51369;49.862;9.908;2023-05-08T10:03:48;98861.34;;;19.45;55.47
64876;BME280;51369;49.862;9.908;2023-05-08T10:06:15;98853.59;;;19.52;55.22
64876;BME280;51369;49.862;9.908;2023-05-08T10:08:40;98855.13;;;19.56;55.71
64876;BME280;51369;49.862;9.908;2023-05-08T10:11:18;98857.75;;;19.57;55.15
64876;BME280;51369;49.862;9.908;2023-05-08T10:13:45;98857.53;;;19.60;55.80
64876;BME280;51369;49.862;9.908;2023-05-08T10:16:14;98865.19;;;19.68;55.64
64876;BME280;51369;49.862;9.908;2023-05-08T10:18:48;98862.00;;;19.74;56.06
64876;BME280;51369;49.862;9.908;2023-05-08T10:21:14;98854.00;;;19.83;56.29
64876;BME280;51369;49.862;9.908;2023-05-08T10:23:41;98863.88;;;19.86;55.78
64876;BME280;51369;49.862;9.908;2023-05-08T10:26:11;98864.19;;;19.94;55.11
64876;BME280;51369;49.862;9.908;2023-05-08T10:28:55;98859.03;;;20.02;55.96
64876;BME280;51369;49.862;9.908;2023-05-08T10:31:27;98849.66;;;20.18;55.62
64876;BME280;51369;49.862;9.908;2023-05-08T10:33:54;98851.50;;;20.30;56.04
64876;BME280;51369;49.862;9.908;2023-05-08T10:36:24;98854.34;;;20.41;55.27
64876;BME280;51369;49.862;9.908;2023-05-08T10:38:51;98852.78;;;20.50;54.84
64876;BME280;51369;49.862;9.908;2023-05-08T10:41:18;98851.19;;;20.58;55.52
64876;BME280;51369;49.862;9.908;2023-05-08T10:43:44;98839.75;;;20.64;55.12
64876;BME280;51369;49.862;9.908;2023-05-08T10:46:32;98851.84;;;20.62;55.32
64876;BME280;51369;49.862;9.908;2023-05-08T10:49:29;98852.94;;;20.59;54.71
64876;BME280;51369;49.862;9.908;2023-05-08T10:52:19;98849.03;;;20.51;54.27
64876;BME280;51369;49.862;9.908;2023-05-08T10:57:23;98843.47;;;20.39;54.60
64876;BME280;51369;49.862;9.908;2023-05-08T10:59:48;98846.75;;;20.32;55.75
64876;BME280;51369;49.862;9.908;2023-05-08T11:02:14;98844.72;;;20.23;55.21
64876;BME280;51369;49.862;9.908;2023-05-08T11:04:40;98847.16;;;20.14;55.46
64876;BME280;51369;49.862;9.908;2023-05-08T11:07:07;98843.75;;;20.11;56.29
64876;BME280;51369;49.862;9.908;2023-05-08T11:12:07;98846.94;;;20.05;56.68
64876;BME280;51369;49.862;9.908;2023-05-08T11:14:41;98858.16;;;20.02;56.75
64876;BME280;51369;49.862;9.908;2023-05-08T11:17:08;98856.94;;;19.93;56.27
64876;BME280;51369;49.862;9.908;2023-05-08T11:19:35;98851.81;;;19.89;56.52
64876;BME280;51369;49.862;9.908;2023-05-08T11:24:35;98856.06;;;19.93;56.97
64876;BME280;51369;49.862;9.908;2023-05-08T11:27:01;98856.31;;;19.90;57.43
64876;BME280;51369;49.862;9.908;2023-05-08T11:29:26;98858.16;;;19.89;57.75
64876;BME280;51369;49.862;9.908;2023-05-08T11:31:52;98854.53;;;19.89;57.67
64876;BME280;51369;49.862;9.908;2023-05-08T11:37:19;98847.53;;;19.85;58.04
64876;BME280;51369;49.862;9.908;2023-05-08T11:39:48;98855.88;;;19.83;57.51
64876;BME280;51369;49.862;9.908;2023-05-08T11:45:18;98851.06;;;19.74;58.14
64876;BME280;51369;49.862;9.908;2023-05-08T11:47:44;98857.09;;;19.79;58.61
64876;BME280;51369;49.862;9.908;2023-05-08T11:50:12;98858.84;;;19.80;59.91
64876;BME280;51369;49.862;9.908;2023-05-08T11:52:39;98860.81;;;19.78;59.13
64876;BME280;51369;49.862;9.908;2023-05-08T11:55:07;98862.66;;;19.77;59.68
64876;BME280;51369;49.862;9.908;2023-05-08T11:57:34;98859.06;;;19.77;60.87
64876;BME280;51369;49.862;9.908;2023-05-08T12:00:07;98862.78;;;19.76;61.22
64876;BME280;51369;49.862;9.908;2023-05-08T12:02:45;98857.31;;;19.76;61.64
64876;BME280;51369;49.862;9.908;2023-05-08T12:05:10;98860.69;;;19.79;61.98
64876;BME280;51369;49.862;9.908;2023-05-08T12:07:46;98864.19;;;19.81;62.53
64876;BME280;51369;49.862;9.908;2023-05-08T12:10:12;98858.38;;;19.86;61.80
64876;BME280;51369;49.862;9.908;2023-05-08T12:12:39;98860.91;;;19.89;63.25
64876;BME280;51369;49.862;9.908;2023-05-08T12:15:08;98856.06;;;19.93;63.54
64876;BME280;51369;49.862;9.908;2023-05-08T12:17:34;98857.50;;;19.98;64.24
64876;BME280;51369;49.862;9.908;2023-05-08T12:20:13;98861.00;;;20.00;64.93
64876;BME280;51369;49.862;9.908;2023-05-08T12:22:39;98859.66;;;20.06;65.35
64876;BME280;51369;49.862;9.908;2023-05-08T12:25:06;98861.09;;;20.11;66.13
64876;BME280;51369;49.862;9.908;2023-05-08T12:27:34;98856.25;;;20.15;65.83
64876;BME280;51369;49.862;9.908;2023-05-08T12:30:05;98855.91;;;20.20;66.84
64876;BME280;51369;49.862;9.908;2023-05-08T12:32:31;98849.09;;;20.25;66.41
64876;BME280;51369;49.862;9.908;2023-05-08T12:34:59;98852.25;;;20.32;67.12
64876;BME280;51369;49.862;9.908;2023-05-08T12:37:28;98853.34;;;20.42;66.84
64876;BME280;51369;49.862;9.908;2023-05-08T12:39:53;98850.66;;;20.53;67.38
64876;BME280;51369;49.862;9.908;2023-05-08T12:42:19;98840.50;;;20.66;67.68
64876;BME280;51369;49.862;9.908;2023-05-08T12:44:52;98836.81;;;20.78;66.95
64876;BME280;51369;49.862;9.908;2023-05-08T12:47:18;98837.88;;;21.00;67.55
64876;BME280;51369;49.862;9.908;2023-05-08T12:49:46;98835.50;;;21.30;67.75
64876;BME280;51369;49.862;9.908;2023-05-08T12:52:14;98837.81;;;21.59;66.00
64876;BME280;51369;49.862;9.908;2023-05-08T12:54:47;98834.56;;;21.76;64.25
64876;BME280;51369;49.862;9.908;2023-05-08T12:57:15;98829.31;;;21.95;64.82
64876;BME280;51369;49.862;9.908;2023-05-08T12:59:42;98822.84;;;22.07;63.44
64876;BME280;51369;49.862;9.908;2023-05-08T13:02:16;98816.81;;;22.25;63.54
64876;BME280;51369;49.862;9.908;2023-05-08T13:04:42;98819.38;;;22.49;62.22
64876;BME280;51369;49.862;9.908;2023-05-08T13:07:07;98815.31;;;22.64;60.45
64876;BME280;51369;49.862;9.908;2023-05-08T13:09:33;98825.25;;;22.76;59.29
64876;BME280;51369;49.862;9.908;2023-05-08T13:11:58;98810.50;;;22.77;58.30
64876;BME280;51369;49.862;9.908;2023-05-08T13:14:23;98814.38;;;22.74;57.64
64876;BME280;51369;49.862;9.908;2023-05-08T13:16:49;98815.78;;;22.69;57.53
64876;BME280;51369;49.862;9.908;2023-05-08T13:19:16;98820.06;;;22.62;57.67
64876;BME280;51369;49.862;9.908;2023-05-08T13:21:42;98811.31;;;22.57;57.53
64876;BME280;51369;49.862;9.908;2023-05-08T13:24:13;98812.00;;;22.49;57.48
64876;BME280;51369;49.862;9.908;2023-05-08T13:26:38;98809.78;;;22.43;57.72
64876;BME280;51369;49.862;9.908;2023-05-08T13:29:04;98813.03;;;22.37;57.04
64876;BME280;51369;49.862;9.908;2023-05-08T13:31:29;98813.56;;;22.31;57.20
64876;BME280;51369;49.862;9.908;2023-05-08T13:33:54;98820.56;;;22.24;57.59
64876;BME280;51369;49.862;9.908;2023-05-08T13:36:20;98813.56;;;22.20;57.52